createdAt,value
2019-03-06T00:02:49.892Z,4.58
2019-03-06T00:07:58.831Z,5.12
2019-03-06T00:13:08.004Z,4.93
2019-03-06T00:18:16.961Z,5.21
2019-03-06T00:23:25.984Z,5.28
2019-03-06T00:28:34.918Z,5.44
2019-03-06T00:33:43.913Z,6.42
2019-03-06T00:38:52.845Z,7.58
2019-03-06T00:44:01.850Z,6.22
2019-03-06T00:49:10.790Z,6.46
2019-03-06T00:54:19.749Z,6.88
2019-03-06T00:59:28.775Z,6.09
2019-03-06T01:04:37.756Z,6.31
2019-03-06T01:09:45.246Z,6.63
2019-03-06T01:14:54.251Z,6.42
2019-03-06T01:20:03.287Z,8.01
2019-03-06T01:25:12.274Z,8.84
2019-03-06T01:30:21.287Z,7.11
2019-03-06T01:35:30.278Z,9.02
2019-03-06T01:40:39.670Z,6.80
2019-03-06T01:45:48.669Z,7.05
2019-03-06T01:50:57.610Z,6.88
2019-03-06T01:56:06.598Z,6.69
2019-03-06T02:01:15.564Z,6.96
2019-03-06T02:06:24.547Z,8.11
2019-03-06T02:11:33.575Z,6.58
2019-03-06T02:16:42.557Z,6.58
2019-03-06T02:21:51.563Z,6.24
2019-03-06T02:27:00.630Z,6.26
2019-03-06T02:32:09.643Z,7.09
2019-03-06T02:37:18.694Z,6.29
2019-03-06T02:42:27.687Z,7.14
2019-03-06T02:47:36.758Z,5.70
2019-03-06T02:52:45.703Z,5.49
2019-03-06T02:57:54.721Z,5.58
2019-03-06T03:03:03.728Z,5.23
2019-03-06T03:08:12.799Z,6.02
2019-03-06T03:13:21.730Z,4.71
2019-03-06T03:18:30.731Z,4.42
2019-03-06T03:23:39.743Z,4.31
2019-03-06T03:28:48.735Z,4.63
2019-03-06T03:33:57.679Z,4.37
2019-03-06T03:39:06.693Z,4.58
2019-03-06T03:44:15.724Z,4.33
2019-03-06T03:49:24.718Z,4.16
2019-03-06T03:54:33.711Z,3.74
2019-03-06T03:59:42.706Z,3.85
2019-03-06T04:04:51.745Z,4.22
2019-03-06T04:10:00.724Z,3.21
2019-03-06T04:15:09.814Z,4.34
2019-03-06T04:20:18.815Z,3.54
2019-03-06T04:25:27.863Z,3.99
2019-03-06T04:30:36.854Z,3.92
2019-03-06T04:35:45.910Z,2.86
2019-03-06T04:40:54.908Z,2.81
2019-03-06T04:46:03.918Z,3.62
2019-03-06T04:51:13.229Z,2.54
2019-03-06T04:56:21.894Z,3.69
2019-03-06T05:01:30.886Z,2.80
2019-03-06T05:06:39.938Z,3.22
2019-03-06T05:11:48.882Z,3.27
2019-03-06T05:16:57.906Z,3.02
2019-03-06T05:22:06.852Z,2.20
2019-03-06T05:27:15.861Z,1.87
2019-03-06T05:32:24.784Z,2.18
2019-03-06T05:37:33.798Z,2.15
2019-03-06T05:42:42.778Z,2.39
2019-03-06T05:47:51.770Z,1.83
2019-03-06T05:53:00.730Z,1.83
2019-03-06T05:58:09.782Z,1.95
2019-03-06T06:03:18.721Z,1.46
2019-03-06T06:08:27.778Z,1.30
2019-03-06T06:13:36.730Z,1.51
2019-03-06T06:18:45.799Z,1.17
2019-03-06T06:23:54.763Z,1.24
2019-03-06T06:29:03.722Z,1.05
2019-03-06T06:34:12.678Z,1.33
2019-03-06T06:39:21.743Z,1.05
2019-03-06T06:44:30.659Z,1.52
2019-03-06T06:49:39.638Z,0.96
2019-03-06T06:54:48.558Z,1.06
2019-03-06T06:59:57.515Z,1.29
2019-03-06T07:05:06.458Z,1.10
2019-03-06T07:10:15.444Z,1.19
2019-03-06T07:15:24.610Z,1.23
2019-03-06T07:20:33.486Z,0.98
2019-03-06T07:25:42.442Z,0.83
2019-03-06T07:30:51.382Z,0.86
2019-03-06T07:36:00.345Z,0.99
2019-03-06T07:41:09.291Z,0.80
2019-03-06T07:46:18.635Z,0.77
2019-03-06T07:51:27.574Z,0.92
2019-03-06T07:56:36.595Z,0.93
2019-03-06T08:01:45.535Z,0.86
2019-03-06T08:06:54.737Z,1.04
2019-03-06T08:12:03.681Z,0.97
2019-03-06T08:17:12.621Z,1.03
2019-03-06T08:22:21.579Z,1.00
2019-03-06T08:27:30.542Z,0.86
2019-03-06T08:32:39.486Z,0.95
2019-03-06T08:37:48.410Z,0.96
2019-03-06T08:42:57.431Z,1.03
2019-03-06T08:48:06.390Z,0.88
2019-03-06T08:53:15.368Z,0.90
2019-03-06T08:58:24.314Z,0.95
2019-03-06T09:03:33.278Z,1.14
2019-03-06T09:08:42.223Z,0.89
2019-03-06T09:13:51.253Z,0.92
2019-03-06T09:19:00.232Z,0.99
2019-03-06T09:24:09.263Z,0.94
2019-03-06T09:29:18.242Z,1.14
2019-03-06T09:34:28.273Z,1.22
2019-03-06T09:39:35.721Z,1.18
2019-03-06T09:44:44.732Z,1.06
2019-03-06T09:49:53.714Z,1.11
2019-03-06T09:55:02.774Z,1.13
2019-03-06T10:00:11.760Z,1.61
2019-03-06T10:05:20.758Z,1.27
2019-03-06T10:10:29.748Z,1.20
2019-03-06T10:15:39.639Z,1.12
2019-03-06T10:20:48.621Z,1.26
2019-03-06T10:25:57.605Z,1.16
2019-03-06T10:31:06.608Z,1.35
2019-03-06T10:36:15.891Z,1.11
2019-03-06T10:41:24.866Z,1.26
2019-03-06T10:46:33.866Z,1.21
2019-03-06T10:51:42.902Z,1.03
2019-03-06T10:56:51.946Z,1.13
2019-03-06T11:02:00.968Z,1.26
2019-03-06T11:07:10.022Z,1.23
2019-03-06T11:12:19.060Z,1.18
2019-03-06T11:17:28.055Z,1.15
2019-03-06T11:22:37.034Z,1.04
2019-03-06T11:27:46.102Z,1.32
2019-03-06T11:32:55.083Z,1.20
2019-03-06T11:38:04.094Z,1.24
2019-03-06T11:43:13.098Z,1.24
2019-03-06T11:48:22.115Z,1.17
2019-03-06T11:53:32.921Z,1.31
2019-03-06T11:58:39.735Z,1.32
2019-03-06T12:03:48.674Z,1.13
2019-03-06T12:08:57.734Z,1.29
2019-03-06T12:14:06.739Z,1.33
2019-03-06T12:19:15.738Z,1.29
2019-03-06T12:24:24.678Z,1.20
2019-03-06T12:29:33.665Z,1.33
2019-03-06T12:34:42.870Z,1.41
2019-03-06T12:39:51.866Z,1.66
2019-03-06T12:45:00.803Z,1.33
2019-03-06T12:50:09.807Z,1.33
2019-03-06T12:55:18.881Z,1.44
2019-03-06T13:00:27.861Z,1.19
2019-03-06T13:05:36.862Z,1.31
2019-03-06T13:10:45.859Z,1.17
2019-03-06T13:15:54.906Z,1.20
2019-03-06T13:21:03.901Z,1.30
2019-03-06T13:26:12.926Z,1.17
2019-03-06T13:31:21.909Z,1.26
2019-03-06T13:36:30.954Z,1.31
2019-03-06T13:41:39.942Z,1.22
2019-03-06T13:46:49.006Z,1.56
2019-03-06T13:51:58.001Z,1.23
2019-03-06T13:57:07.027Z,1.25
2019-03-06T14:02:16.026Z,1.20
2019-03-06T14:07:25.095Z,1.32
2019-03-06T14:12:34.086Z,1.28
2019-03-06T14:17:43.102Z,1.40
2019-03-06T14:22:52.102Z,1.20
2019-03-06T14:28:01.138Z,1.19
2019-03-06T14:33:10.122Z,1.14
2019-03-06T14:38:19.139Z,1.23
2019-03-06T14:43:28.171Z,1.19
2019-03-06T14:48:37.159Z,1.24
2019-03-06T14:53:46.178Z,1.37
2019-03-06T14:58:55.098Z,1.23
2019-03-06T15:04:04.169Z,1.23
2019-03-06T15:09:13.139Z,1.39
2019-03-06T15:14:22.160Z,1.41
2019-03-06T15:19:31.102Z,1.63
2019-03-06T15:24:41.693Z,1.40
2019-03-06T15:29:48.686Z,1.39
2019-03-06T15:34:57.703Z,1.70
2019-03-06T15:40:06.685Z,1.34
2019-03-06T15:45:15.694Z,1.58
2019-03-06T15:50:24.688Z,1.27
2019-03-06T15:55:33.693Z,1.56
2019-03-06T16:00:46.410Z,1.28
2019-03-06T16:05:51.170Z,1.54
2019-03-06T16:11:00.142Z,1.42
2019-03-06T16:16:09.156Z,1.60
2019-03-06T16:21:18.106Z,1.58
2019-03-06T16:26:27.106Z,1.72
2019-03-06T16:31:36.086Z,1.58
2019-03-06T16:36:45.110Z,1.59
2019-03-06T16:41:54.042Z,1.54
2019-03-06T16:47:06.649Z,1.72
2019-03-06T16:52:11.745Z,1.61
2019-03-06T16:57:20.754Z,1.66
2019-03-06T17:02:29.707Z,1.92
2019-03-06T17:07:38.726Z,1.59
2019-03-06T17:12:47.656Z,1.45
2019-03-06T17:17:56.626Z,1.79
2019-03-06T17:23:05.546Z,1.53
2019-03-06T17:28:14.498Z,1.73
2019-03-06T17:33:23.543Z,1.53
2019-03-06T17:38:32.494Z,1.71
2019-03-06T17:43:40.026Z,1.69
2019-03-06T17:48:48.979Z,2.21
2019-03-06T17:53:57.982Z,1.88
2019-03-06T17:59:06.927Z,1.99
2019-03-06T18:04:15.982Z,1.94
2019-03-06T18:09:24.913Z,2.00
2019-03-06T18:14:33.986Z,2.18
2019-03-06T18:19:42.914Z,2.35
2019-03-06T18:24:51.986Z,2.14
2019-03-06T18:30:00.923Z,2.36
2019-03-06T18:35:09.928Z,2.33
2019-03-06T18:40:18.970Z,2.51
2019-03-06T18:45:27.994Z,2.31
2019-03-06T18:50:36.991Z,2.18
2019-03-06T18:55:46.038Z,2.26
2019-03-06T19:01:01.765Z,2.49
2019-03-06T19:06:00.719Z,2.69
2019-03-06T19:11:16.766Z,2.56
2019-03-06T19:16:18.203Z,3.02
2019-03-06T19:21:27.210Z,2.57
2019-03-06T19:26:36.215Z,3.32
2019-03-06T19:31:45.202Z,2.56
2019-03-06T19:36:54.394Z,3.32
2019-03-06T19:42:03.394Z,3.10
2019-03-06T19:47:12.342Z,2.61
2019-03-06T19:52:21.342Z,3.21
2019-03-06T19:57:30.286Z,2.98
2019-03-06T20:02:39.280Z,3.09
2019-03-06T20:07:48.310Z,3.63
2019-03-06T20:12:57.294Z,3.04
2019-03-06T20:18:06.343Z,3.23
2019-03-06T20:23:15.266Z,3.35
2019-03-06T20:28:24.343Z,3.70
2019-03-06T20:33:34.157Z,3.16
2019-03-06T20:38:41.842Z,4.15
2019-03-06T20:43:50.783Z,3.19
2019-03-06T20:48:59.758Z,3.14
2019-03-06T20:54:08.711Z,3.13
2019-03-06T20:59:17.646Z,2.97
2019-03-06T21:04:26.582Z,3.16
2019-03-06T21:09:35.560Z,3.22
2019-03-06T21:14:44.506Z,4.34
2019-03-06T21:19:53.437Z,4.04
2019-03-06T21:25:02.390Z,3.37
2019-03-06T21:30:11.354Z,4.15
2019-03-06T21:35:20.319Z,3.75
2019-03-06T21:40:29.338Z,3.29
2019-03-06T21:45:38.328Z,4.47
2019-03-06T21:50:47.379Z,3.47
2019-03-06T21:55:56.328Z,3.50
2019-03-06T22:01:05.351Z,3.45
2019-03-06T22:06:14.362Z,3.35
2019-03-06T22:11:23.418Z,4.26
2019-03-06T22:16:32.362Z,3.59
2019-03-06T22:21:41.625Z,4.18
2019-03-06T22:26:50.639Z,3.16
2019-03-06T22:31:59.690Z,3.35
2019-03-06T22:37:08.667Z,3.75
2019-03-06T22:42:17.691Z,3.04
2019-03-06T22:47:26.685Z,3.50
2019-03-06T22:52:35.694Z,2.93
2019-03-06T22:57:44.689Z,3.32
2019-03-06T23:02:53.746Z,3.00
2019-03-06T23:08:02.731Z,3.20
2019-03-06T23:13:11.743Z,3.19
2019-03-06T23:18:20.718Z,2.92
2019-03-06T23:23:29.730Z,3.00
2019-03-06T23:28:38.702Z,2.97
2019-03-06T23:33:47.754Z,3.49
2019-03-06T23:38:56.753Z,3.24
2019-03-06T23:44:05.974Z,2.84
2019-03-06T23:49:14.966Z,3.01
2019-03-06T23:54:24.016Z,3.07
2019-03-06T23:59:32.996Z,2.69
